createdAt,value
2022-09-12T00:02:04.411Z,12.70
2022-09-12T00:04:31.824Z,12.73
2022-09-12T00:06:59.079Z,12.70
2022-09-12T00:09:26.094Z,12.69
2022-09-12T00:11:53.254Z,12.68
2022-09-12T00:14:20.454Z,12.70
2022-09-12T00:16:47.765Z,12.65
2022-09-12T00:19:15.547Z,12.68
2022-09-12T00:21:42.776Z,12.70
2022-09-12T00:24:10.773Z,12.72
2022-09-12T00:26:38.084Z,12.74
2022-09-12T00:29:05.141Z,12.68
2022-09-12T00:31:32.573Z,12.73
2022-09-12T00:34:01.240Z,12.80
2022-09-12T00:36:31.284Z,12.80
2022-09-12T00:38:58.887Z,12.81
2022-09-12T00:41:31.438Z,12.91
2022-09-12T00:44:18.101Z,12.97
2022-09-12T00:47:01.274Z,12.93
2022-09-12T00:49:47.073Z,12.94
2022-09-12T00:52:17.136Z,12.95
2022-09-12T00:54:48.146Z,12.93
2022-09-12T00:57:16.531Z,12.97
2022-09-12T00:59:48.635Z,12.97
2022-09-12T01:02:15.957Z,12.98
2022-09-12T01:04:44.501Z,12.98
2022-09-12T01:07:11.717Z,12.96
2022-09-12T01:09:39.666Z,12.91
2022-09-12T01:12:06.742Z,12.93
2022-09-12T01:14:34.906Z,12.90
2022-09-12T01:17:01.959Z,12.84
2022-09-12T01:19:35.236Z,12.86
2022-09-12T01:22:26.141Z,12.85
2022-09-12T01:25:17.702Z,12.85
2022-09-12T01:28:12.166Z,12.76
2022-09-12T01:30:45.807Z,12.74
2022-09-12T01:33:44.874Z,12.73
2022-09-12T01:36:39.840Z,12.70
2022-09-12T01:39:23.415Z,12.68
2022-09-12T01:42:24.939Z,12.66
2022-09-12T01:45:14.418Z,12.61
2022-09-12T01:47:45.241Z,12.56
2022-09-12T01:50:18.696Z,12.56
2022-09-12T01:52:51.010Z,12.54
2022-09-12T01:55:28.535Z,12.51
2022-09-12T01:58:17.188Z,12.42
2022-09-12T02:00:50.732Z,12.46
2022-09-12T02:03:24.053Z,12.41
2022-09-12T02:05:55.113Z,12.40
2022-09-12T02:08:52.237Z,12.39
2022-09-12T02:11:19.375Z,12.35
2022-09-12T02:14:00.104Z,12.35
2022-09-12T02:17:05.338Z,12.35
2022-09-12T02:19:37.459Z,12.40
2022-09-12T02:22:05.161Z,12.39
2022-09-12T02:24:37.053Z,12.36
2022-09-12T02:27:16.019Z,12.29
2022-09-12T02:29:44.714Z,12.26
2022-09-12T02:32:27.998Z,12.22
2022-09-12T02:35:23.104Z,12.19
2022-09-12T02:38:11.535Z,12.19
2022-09-12T02:40:38.732Z,12.25
2022-09-12T02:43:06.542Z,12.29
2022-09-12T02:45:34.885Z,12.34
2022-09-12T02:48:08.925Z,12.39
2022-09-12T02:50:36.071Z,12.43
2022-09-12T02:53:05.636Z,12.44
2022-09-12T02:55:33.927Z,12.40
2022-09-12T02:58:03.816Z,12.37
2022-09-12T03:00:51.068Z,12.33
2022-09-12T03:03:33.266Z,12.35
2022-09-12T03:06:02.683Z,12.39
2022-09-12T03:08:32.515Z,12.34
2022-09-12T03:11:09.147Z,12.35
2022-09-12T03:13:50.662Z,12.35
2022-09-12T03:16:34.561Z,12.39
2022-09-12T03:19:25.523Z,12.39
2022-09-12T03:22:02.418Z,12.42
2022-09-12T03:24:34.045Z,12.39
2022-09-12T03:27:17.209Z,12.37
2022-09-12T03:29:47.387Z,12.31
2022-09-12T03:32:15.006Z,12.32
2022-09-12T03:34:41.984Z,12.31
2022-09-12T03:37:08.961Z,12.35
2022-09-12T03:39:36.021Z,12.35
2022-09-12T03:42:03.039Z,12.37
2022-09-12T03:44:30.092Z,12.42
2022-09-12T03:46:57.122Z,12.44
2022-09-12T03:49:24.105Z,12.52
2022-09-12T03:51:51.168Z,12.54
2022-09-12T03:54:18.194Z,12.55
2022-09-12T03:56:45.269Z,12.57
2022-09-12T03:59:12.269Z,12.65
2022-09-12T04:01:39.272Z,12.67
2022-09-12T04:04:09.183Z,12.66
2022-09-12T04:06:36.245Z,12.65
2022-09-12T04:09:03.923Z,12.71
2022-09-12T04:11:32.234Z,12.71
2022-09-12T04:13:59.335Z,12.69
2022-09-12T04:16:26.382Z,12.70
2022-09-12T04:18:54.185Z,12.75
2022-09-12T04:21:22.149Z,12.80
2022-09-12T04:23:49.569Z,12.85
2022-09-12T04:26:17.829Z,12.90
2022-09-12T04:28:46.261Z,12.89
2022-09-12T04:31:17.741Z,12.87
2022-09-12T04:33:45.388Z,12.85
2022-09-12T04:36:16.718Z,12.80
2022-09-12T04:38:45.168Z,12.78
2022-09-12T04:41:17.889Z,12.78
2022-09-12T04:43:48.382Z,12.75
2022-09-12T04:46:17.289Z,12.75
2022-09-12T04:48:44.350Z,12.77
2022-09-12T04:51:14.159Z,12.73
2022-09-12T04:53:41.669Z,12.71
2022-09-12T04:56:10.154Z,12.71
2022-09-12T04:58:37.793Z,12.71
2022-09-12T05:01:08.607Z,12.71
2022-09-12T05:03:35.946Z,12.66
2022-09-12T05:06:03.620Z,12.66
2022-09-12T05:08:30.613Z,12.68
2022-09-12T05:11:02.357Z,12.68
2022-09-12T05:13:29.320Z,12.69
2022-09-12T05:16:00.275Z,12.67
2022-09-12T05:18:27.774Z,12.70
2022-09-12T05:20:55.134Z,12.72
2022-09-12T05:23:22.293Z,12.75
2022-09-12T05:25:53.445Z,12.77
2022-09-12T05:28:21.373Z,12.79
2022-09-12T05:30:48.726Z,12.81
2022-09-12T05:33:16.133Z,12.86
2022-09-12T05:35:51.402Z,12.91
2022-09-12T05:38:18.688Z,12.95
2022-09-12T05:40:45.839Z,13.00
2022-09-12T05:43:12.830Z,13.05
2022-09-12T05:45:41.442Z,13.04
2022-09-12T05:48:08.492Z,13.06
2022-09-12T05:50:35.595Z,13.08
2022-09-12T05:53:02.573Z,13.11
2022-09-12T05:55:30.895Z,13.12
2022-09-12T05:57:57.897Z,13.17
2022-09-12T06:00:25.178Z,13.25
2022-09-12T06:02:53.396Z,13.31
2022-09-12T06:05:20.792Z,13.38
2022-09-12T06:07:48.666Z,13.44
2022-09-12T06:10:16.156Z,13.53
2022-09-12T06:12:43.670Z,13.60
2022-09-12T06:15:10.955Z,13.65
2022-09-12T06:17:37.939Z,13.68
2022-09-12T06:20:05.215Z,13.74
2022-09-12T06:22:32.305Z,13.80
2022-09-12T06:24:59.320Z,13.86
2022-09-12T06:27:26.591Z,13.87
2022-09-12T06:29:53.569Z,13.93
2022-09-12T06:32:20.577Z,13.90
2022-09-12T06:34:48.502Z,13.80
2022-09-12T06:37:15.522Z,13.73
2022-09-12T06:39:42.551Z,13.77
2022-09-12T06:42:10.047Z,13.83
2022-09-12T06:44:37.367Z,13.87
2022-09-12T06:47:04.448Z,13.91
2022-09-12T06:49:31.617Z,13.98
2022-09-12T06:51:58.610Z,13.98
2022-09-12T06:54:26.465Z,14.00
2022-09-12T06:56:53.467Z,14.04
2022-09-12T06:59:20.446Z,14.09
2022-09-12T07:01:47.503Z,14.03
2022-09-12T07:04:14.699Z,14.07
2022-09-12T07:06:42.869Z,14.06
2022-09-12T07:09:12.077Z,14.03
2022-09-12T07:11:40.843Z,14.05
2022-09-12T07:14:09.444Z,14.10
2022-09-12T07:16:36.708Z,14.12
2022-09-12T07:19:05.531Z,14.17
2022-09-12T07:21:33.068Z,14.21
2022-09-12T07:24:00.110Z,14.29
2022-09-12T07:26:28.855Z,14.41
2022-09-12T07:29:12.866Z,14.51
2022-09-12T07:31:44.192Z,14.57
2022-09-12T07:34:11.204Z,14.72
2022-09-12T07:36:39.099Z,14.85
2022-09-12T07:39:06.332Z,14.97
2022-09-12T07:41:36.272Z,15.10
2022-09-12T07:44:03.754Z,15.26
2022-09-12T07:46:31.612Z,15.35
2022-09-12T07:49:00.404Z,15.43
2022-09-12T07:51:28.749Z,15.55
2022-09-12T07:53:57.359Z,15.68
2022-09-12T07:56:29.349Z,15.76
2022-09-12T07:58:57.820Z,15.86
2022-09-12T08:01:24.851Z,15.92
2022-09-12T08:03:57.286Z,16.06
2022-09-12T08:06:26.125Z,16.21
2022-09-12T08:08:55.053Z,16.41
2022-09-12T08:11:23.222Z,16.58
2022-09-12T08:13:55.367Z,16.78
2022-09-12T08:16:25.835Z,16.91
2022-09-12T08:18:53.062Z,16.99
2022-09-12T08:21:22.471Z,17.02
2022-09-12T08:24:03.781Z,17.01
2022-09-12T08:26:31.740Z,17.01
2022-09-12T08:28:59.345Z,17.00
2022-09-12T08:31:27.440Z,16.96
2022-09-12T08:33:58.907Z,16.90
2022-09-12T08:36:27.414Z,16.86
2022-09-12T08:39:00.622Z,16.88
2022-09-12T08:41:46.941Z,16.91
2022-09-12T08:44:39.631Z,16.99
2022-09-12T08:47:23.667Z,17.04
2022-09-12T08:49:59.412Z,17.12
2022-09-12T08:53:05.241Z,17.12
2022-09-12T08:55:53.719Z,17.05
2022-09-12T08:58:23.254Z,17.01
2022-09-12T09:01:08.802Z,17.02
2022-09-12T09:03:54.597Z,17.01
2022-09-12T09:06:48.019Z,17.03
2022-09-12T09:09:36.061Z,17.05
2022-09-12T09:12:29.139Z,17.05
2022-09-12T09:15:12.072Z,17.03
2022-09-12T09:17:42.678Z,17.02
2022-09-12T09:20:30.079Z,16.98
2022-09-12T09:23:02.333Z,17.03
2022-09-12T09:25:53.710Z,17.20
2022-09-12T09:28:29.206Z,17.42
2022-09-12T09:30:56.296Z,17.63
2022-09-12T09:33:26.103Z,17.80
2022-09-12T09:35:59.991Z,17.93
2022-09-12T09:38:30.716Z,18.03
2022-09-12T09:41:28.413Z,18.13
2022-09-12T09:43:56.464Z,18.26
2022-09-12T09:46:23.974Z,18.41
2022-09-12T09:48:51.434Z,18.45
2022-09-12T09:51:25.059Z,18.43
2022-09-12T09:53:54.842Z,18.34
2022-09-12T09:56:31.475Z,18.20
2022-09-12T09:59:25.802Z,18.11
2022-09-12T10:01:55.423Z,18.06
2022-09-12T10:04:25.883Z,18.02
2022-09-12T10:06:54.437Z,17.98
2022-09-12T10:09:24.295Z,17.96
2022-09-12T10:11:51.851Z,17.96
2022-09-12T10:14:39.919Z,17.91
2022-09-12T10:17:34.208Z,17.88
2022-09-12T10:20:20.541Z,17.88
2022-09-12T10:22:48.686Z,17.84
2022-09-12T10:25:18.577Z,17.78
2022-09-12T10:27:52.921Z,17.83
2022-09-12T10:30:20.673Z,17.87
2022-09-12T10:32:51.065Z,17.88
2022-09-12T10:35:28.784Z,17.92
2022-09-12T10:38:02.472Z,17.88
2022-09-12T10:40:35.105Z,17.94
2022-09-12T10:43:03.276Z,18.09
2022-09-12T10:45:32.525Z,18.28
2022-09-12T10:48:06.766Z,18.48
2022-09-12T10:50:43.779Z,18.68
2022-09-12T10:53:25.724Z,18.67
2022-09-12T10:56:03.323Z,18.75
2022-09-12T10:59:14.741Z,18.91
2022-09-12T11:01:47.429Z,19.08
2022-09-12T11:04:30.284Z,19.25
2022-09-12T11:07:22.630Z,19.45
2022-09-12T11:10:09.701Z,19.60
2022-09-12T11:12:53.313Z,19.70
2022-09-12T11:15:39.429Z,19.76
2022-09-12T11:18:16.492Z,19.86
2022-09-12T11:21:19.668Z,19.93
2022-09-12T11:24:12.858Z,19.87
2022-09-12T11:26:47.944Z,19.82
2022-09-12T11:29:46.815Z,19.76
2022-09-12T11:32:45.126Z,19.69
2022-09-12T11:35:25.673Z,19.59
2022-09-12T11:38:16.940Z,19.50
2022-09-12T11:40:55.594Z,19.41
2022-09-12T11:43:41.438Z,19.33
2022-09-12T11:46:25.324Z,19.24
2022-09-12T11:48:59.973Z,19.18
2022-09-12T11:51:35.889Z,19.12
2022-09-12T11:54:10.077Z,19.02
2022-09-12T11:56:40.630Z,18.95
2022-09-12T11:59:47.873Z,18.88
2022-09-12T12:02:26.112Z,18.84
2022-09-12T12:05:21.219Z,18.85
2022-09-12T12:07:52.231Z,18.85
2022-09-12T12:10:34.830Z,18.79
2022-09-12T12:13:05.609Z,18.73
2022-09-12T12:15:36.004Z,18.57
2022-09-12T12:18:06.554Z,18.57
2022-09-12T12:20:33.795Z,18.57
2022-09-12T12:23:01.089Z,18.63
2022-09-12T12:25:51.513Z,18.55
2022-09-12T12:28:50.437Z,18.54
2022-09-12T12:31:17.962Z,18.53
2022-09-12T12:33:44.976Z,18.65
2022-09-12T12:36:38.568Z,18.67
2022-09-12T12:39:33.520Z,18.73
2022-09-12T12:42:01.210Z,18.82
2022-09-12T12:44:47.576Z,18.98
2022-09-12T12:47:18.797Z,19.11
2022-09-12T12:49:51.991Z,19.22
2022-09-12T12:52:19.470Z,19.24
2022-09-12T12:54:46.454Z,19.32
2022-09-12T12:57:13.350Z,19.44
2022-09-12T12:59:59.579Z,19.54
2022-09-12T13:02:31.054Z,19.58
2022-09-12T13:05:00.165Z,19.68
2022-09-12T13:07:34.011Z,19.78
2022-09-12T13:10:01.507Z,19.83
2022-09-12T13:12:32.749Z,19.87
2022-09-12T13:15:01.930Z,19.86
2022-09-12T13:17:33.473Z,19.89
2022-09-12T13:20:29.772Z,19.89
2022-09-12T13:22:57.824Z,19.91
2022-09-12T13:25:37.063Z,19.85
2022-09-12T13:28:16.310Z,19.77
2022-09-12T13:30:45.350Z,19.71
2022-09-12T13:33:20.057Z,19.73
2022-09-12T13:36:03.832Z,19.67
2022-09-12T13:38:34.854Z,19.68
2022-09-12T13:41:35.168Z,19.74
2022-09-12T13:44:03.620Z,19.81
2022-09-12T13:46:33.968Z,19.89
2022-09-12T13:49:05.823Z,19.98
2022-09-12T13:51:32.947Z,20.05
2022-09-12T13:54:03.467Z,20.11
2022-09-12T13:56:30.444Z,20.03
2022-09-12T13:59:00.372Z,20.05
2022-09-12T14:01:41.946Z,19.89
2022-09-12T14:04:39.992Z,19.82
2022-09-12T14:07:24.262Z,19.86
2022-09-12T14:09:56.335Z,19.89
2022-09-12T14:12:36.651Z,19.93
2022-09-12T14:15:04.006Z,19.91
2022-09-12T14:17:34.713Z,19.87
2022-09-12T14:20:07.153Z,19.79
2022-09-12T14:22:34.971Z,19.77
2022-09-12T14:25:02.135Z,19.76
2022-09-12T14:27:32.257Z,19.77
2022-09-12T14:30:03.804Z,19.78
2022-09-12T14:32:30.868Z,19.82
2022-09-12T14:35:22.638Z,19.79
2022-09-12T14:37:51.277Z,19.79
2022-09-12T14:40:21.192Z,19.80
2022-09-12T14:42:49.936Z,19.82
2022-09-12T14:45:24.360Z,19.79
2022-09-12T14:47:52.914Z,19.78
2022-09-12T14:50:24.019Z,19.79
2022-09-12T14:53:11.161Z,19.80
2022-09-12T14:55:46.470Z,19.79
2022-09-12T14:58:26.238Z,19.75
2022-09-12T15:01:02.480Z,19.74
2022-09-12T15:03:37.595Z,19.73
2022-09-12T15:06:07.894Z,19.72
2022-09-12T15:08:35.003Z,19.71
2022-09-12T15:11:02.007Z,19.71
2022-09-12T15:13:30.174Z,19.69
2022-09-12T15:15:59.099Z,19.67
2022-09-12T15:18:28.425Z,19.64
2022-09-12T15:20:57.929Z,19.60
2022-09-12T15:23:27.851Z,19.55
2022-09-12T15:25:54.836Z,19.51
2022-09-12T15:28:23.007Z,19.33
2022-09-12T15:30:51.647Z,19.32
2022-09-12T15:33:20.947Z,19.29
2022-09-12T15:35:47.981Z,19.23
2022-09-12T15:38:15.014Z,19.18
2022-09-12T15:40:42.520Z,19.12
2022-09-12T15:43:12.815Z,19.14
2022-09-12T15:45:42.412Z,19.16
2022-09-12T15:48:10.289Z,19.18
2022-09-12T15:50:37.545Z,19.17
2022-09-12T15:53:04.559Z,19.18
2022-09-12T15:55:32.272Z,19.17
2022-09-12T15:58:03.548Z,19.14
2022-09-12T16:00:33.401Z,19.13
2022-09-12T16:03:00.995Z,19.13
2022-09-12T16:05:28.172Z,19.10
2022-09-12T16:07:55.554Z,19.07
2022-09-12T16:10:28.084Z,19.07
2022-09-12T16:12:55.242Z,19.06
2022-09-12T16:15:24.597Z,19.04
2022-09-12T16:17:51.909Z,19.02
2022-09-12T16:20:19.554Z,19.00
2022-09-12T16:22:46.578Z,18.98
2022-09-12T16:25:13.852Z,19.00
2022-09-12T16:27:41.196Z,18.97
2022-09-12T16:30:08.875Z,18.97
2022-09-12T16:32:36.311Z,18.95
2022-09-12T16:35:03.558Z,18.94
2022-09-12T16:37:32.136Z,18.90
2022-09-12T16:39:59.237Z,18.89
2022-09-12T16:42:26.353Z,18.88
2022-09-12T16:44:53.343Z,18.84
2022-09-12T16:47:20.343Z,18.84
2022-09-12T16:49:47.347Z,18.82
2022-09-12T16:52:16.557Z,18.81
2022-09-12T16:54:44.393Z,18.82
2022-09-12T16:57:11.828Z,18.82
2022-09-12T16:59:38.817Z,18.81
2022-09-12T17:02:06.219Z,18.80
2022-09-12T17:04:33.331Z,18.76
2022-09-12T17:07:00.394Z,18.76
2022-09-12T17:09:28.782Z,18.66
2022-09-12T17:11:56.705Z,18.62
2022-09-12T17:14:24.491Z,18.58
2022-09-12T17:16:52.182Z,18.55
2022-09-12T17:19:26.578Z,18.50
2022-09-12T17:21:54.404Z,18.49
2022-09-12T17:24:23.084Z,18.47
2022-09-12T17:26:51.109Z,18.45
2022-09-12T17:29:18.171Z,18.43
2022-09-12T17:31:45.639Z,18.39
2022-09-12T17:34:14.549Z,18.34
2022-09-12T17:36:44.362Z,18.34
2022-09-12T17:39:12.631Z,18.29
2022-09-12T17:41:41.719Z,18.18
2022-09-12T17:44:11.395Z,18.13
2022-09-12T17:46:39.778Z,18.11
2022-09-12T17:49:18.648Z,18.07
2022-09-12T17:51:45.666Z,18.01
2022-09-12T17:54:16.002Z,17.93
2022-09-12T17:56:44.878Z,17.85
2022-09-12T17:59:15.365Z,17.78
2022-09-12T18:02:01.090Z,17.66
2022-09-12T18:04:28.278Z,17.60
2022-09-12T18:06:57.448Z,17.55
2022-09-12T18:09:27.202Z,17.49
2022-09-12T18:11:54.505Z,17.43
2022-09-12T18:14:21.920Z,17.39
2022-09-12T18:16:49.180Z,17.32
2022-09-12T18:19:16.558Z,17.23
2022-09-12T18:21:43.591Z,17.16
2022-09-12T18:24:11.175Z,17.09
2022-09-12T18:26:38.531Z,17.02
2022-09-12T18:29:05.672Z,16.96
2022-09-12T18:31:32.869Z,16.90
2022-09-12T18:34:00.326Z,16.81
2022-09-12T18:36:28.240Z,16.70
2022-09-12T18:38:57.262Z,16.64
2022-09-12T18:41:24.882Z,16.59
2022-09-12T18:43:56.066Z,16.52
2022-09-12T18:46:23.212Z,16.39
2022-09-12T18:48:50.407Z,16.36
2022-09-12T18:51:19.964Z,16.32
2022-09-12T18:53:56.031Z,16.25
2022-09-12T18:56:24.726Z,16.17
2022-09-12T18:58:53.813Z,16.11
2022-09-12T19:01:35.347Z,16.07
2022-09-12T19:04:06.110Z,16.03
2022-09-12T19:06:44.448Z,15.94
2022-09-12T19:09:16.247Z,15.86
2022-09-12T19:11:48.832Z,15.79
2022-09-12T19:14:16.907Z,15.73
2022-09-12T19:16:43.905Z,15.70
2022-09-12T19:19:10.915Z,15.66
2022-09-12T19:21:37.888Z,15.61
2022-09-12T19:24:07.188Z,15.57
2022-09-12T19:26:36.095Z,15.58
2022-09-12T19:29:03.611Z,15.55
2022-09-12T19:31:30.982Z,15.53
2022-09-12T19:34:02.549Z,15.50
2022-09-12T19:36:46.617Z,15.48
2022-09-12T19:39:16.254Z,15.43
2022-09-12T19:41:43.826Z,15.40
2022-09-12T19:44:11.625Z,15.25
2022-09-12T19:46:38.747Z,15.16
2022-09-12T19:49:05.791Z,15.10
2022-09-12T19:51:32.786Z,15.09
2022-09-12T19:53:59.821Z,15.08
2022-09-12T19:56:26.887Z,15.03
2022-09-12T19:58:56.606Z,15.01
2022-09-12T20:01:28.039Z,14.97
2022-09-12T20:03:56.496Z,14.94
2022-09-12T20:06:23.713Z,14.88
2022-09-12T20:08:50.697Z,14.81
2022-09-12T20:11:19.467Z,14.80
2022-09-12T20:13:46.889Z,14.76
2022-09-12T20:16:21.355Z,14.71
2022-09-12T20:18:56.414Z,14.67
2022-09-12T20:21:25.679Z,14.65
2022-09-12T20:23:52.810Z,14.61
2022-09-12T20:26:20.491Z,14.58
2022-09-12T20:28:47.794Z,14.56
2022-09-12T20:31:16.107Z,14.53
2022-09-12T20:33:43.682Z,14.49
2022-09-12T20:36:13.464Z,14.41
2022-09-12T20:38:41.195Z,14.36
2022-09-12T20:41:09.932Z,14.28
2022-09-12T20:43:38.523Z,14.30
2022-09-12T20:46:10.367Z,14.25
2022-09-12T20:48:38.404Z,14.26
2022-09-12T20:51:06.197Z,14.26
2022-09-12T20:53:35.188Z,14.25
2022-09-12T20:56:03.764Z,14.22
2022-09-12T20:58:30.954Z,14.19
2022-09-12T21:00:58.028Z,14.12
2022-09-12T21:03:25.575Z,14.10
2022-09-12T21:05:52.803Z,14.07
2022-09-12T21:08:19.836Z,14.06
2022-09-12T21:10:46.784Z,14.02
2022-09-12T21:13:14.015Z,13.95
2022-09-12T21:15:42.024Z,13.90
2022-09-12T21:18:09.275Z,13.88
2022-09-12T21:20:36.284Z,13.78
2022-09-12T21:23:03.259Z,13.75
2022-09-12T21:25:30.359Z,13.69
2022-09-12T21:27:57.615Z,13.66
2022-09-12T21:30:24.630Z,13.64
2022-09-12T21:32:51.698Z,13.63
2022-09-12T21:35:18.672Z,13.63
2022-09-12T21:37:45.679Z,13.58
2022-09-12T21:40:12.649Z,13.50
2022-09-12T21:42:39.747Z,13.52
2022-09-12T21:45:07.467Z,13.49
2022-09-12T21:47:34.519Z,13.51
2022-09-12T21:50:02.157Z,13.48
2022-09-12T21:52:29.350Z,13.44
2022-09-12T21:54:56.474Z,13.40
2022-09-12T21:57:23.669Z,13.33
2022-09-12T21:59:50.653Z,13.31
2022-09-12T22:02:17.730Z,13.26
2022-09-12T22:04:44.717Z,13.27
2022-09-12T22:07:11.702Z,13.28
2022-09-12T22:09:38.706Z,13.27
2022-09-12T22:12:05.747Z,13.21
2022-09-12T22:14:33.117Z,13.15
2022-09-12T22:17:00.363Z,13.10
2022-09-12T22:19:27.367Z,13.09
2022-09-12T22:22:12.751Z,13.09
2022-09-12T22:24:39.732Z,13.09
2022-09-12T22:27:07.401Z,13.06
2022-09-12T22:29:35.543Z,13.06
2022-09-12T22:32:03.683Z,13.09
2022-09-12T22:34:30.867Z,13.04
2022-09-12T22:36:57.983Z,13.00
2022-09-12T22:39:25.078Z,13.00
2022-09-12T22:41:52.068Z,12.99
2022-09-12T22:44:19.196Z,13.00
2022-09-12T22:46:46.355Z,13.00
2022-09-12T22:49:13.371Z,12.97
2022-09-12T22:51:40.461Z,12.94
2022-09-12T22:54:09.462Z,12.91
2022-09-12T22:56:36.490Z,12.89
2022-09-12T22:59:03.899Z,12.90
2022-09-12T23:01:31.855Z,12.90
2022-09-12T23:03:59.134Z,12.91
2022-09-12T23:06:26.205Z,12.88
2022-09-12T23:08:53.216Z,12.93
2022-09-12T23:11:21.432Z,12.89
2022-09-12T23:13:52.525Z,12.83
2022-09-12T23:16:22.387Z,12.78
2022-09-12T23:18:50.094Z,12.76
2022-09-12T23:21:19.147Z,12.72
2022-09-12T23:23:46.848Z,12.74
2022-09-12T23:26:19.099Z,12.73
2022-09-12T23:28:50.900Z,12.74
2022-09-12T23:31:18.296Z,12.75
2022-09-12T23:33:45.302Z,12.67
2022-09-12T23:36:14.138Z,12.68
2022-09-12T23:38:42.758Z,12.63
2022-09-12T23:41:11.108Z,12.62
2022-09-12T23:43:38.826Z,12.61
2022-09-12T23:46:06.822Z,12.63
2022-09-12T23:48:34.375Z,12.59
2022-09-12T23:51:01.518Z,12.61
2022-09-12T23:53:29.520Z,12.60
2022-09-12T23:55:56.711Z,12.58
2022-09-12T23:58:23.921Z,12.60
